sensor_id;sensor_type;location;lat;lon;timestamp;P1;durP1;ratioP1;P2;durP2;ratioP2
68987;SDS011;56038;46.080;11.116;2023-08-20T00:01:54;8.60;;;7.78;;
68987;SDS011;56038;46.080;11.116;2023-08-20T00:06:58;8.48;;;7.63;;
68987;SDS011;56038;46.080;11.116;2023-08-20T00:12:01;9.43;;;7.35;;
68987;SDS011;56038;46.080;11.116;2023-08-20T00:17:05;8.48;;;7.68;;
68987;SDS011;56038;46.080;11.116;2023-08-20T00:22:07;7.97;;;7.22;;
68987;SDS011;56038;46.080;11.116;2023-08-20T00:27:11;8.32;;;7.50;;
68987;SDS011;56038;46.080;11.116;2023-08-20T00:32:13;10.32;;;7.82;;
68987;SDS011;56038;46.080;11.116;2023-08-20T00:37:15;8.10;;;7.30;;
68987;SDS011;56038;46.080;11.116;2023-08-20T00:42:19;7.45;;;6.80;;
68987;SDS011;56038;46.080;11.116;2023-08-20T00:47:20;7.65;;;6.88;;
68987;SDS011;56038;46.080;11.116;2023-08-20T00:52:23;7.68;;;6.93;;
68987;SDS011;56038;46.080;11.116;2023-08-20T00:57:26;8.80;;;7.53;;
68987;SDS011;56038;46.080;11.116;2023-08-20T01:02:29;8.07;;;6.90;;
68987;SDS011;56038;46.080;11.116;2023-08-20T01:07:33;9.73;;;7.60;;
68987;SDS011;56038;46.080;11.116;2023-08-20T01:12:46;9.00;;;5.80;;
68987;SDS011;56038;46.080;11.116;2023-08-20T01:17:49;7.20;;;6.47;;
68987;SDS011;56038;46.080;11.116;2023-08-20T01:28:32;7.18;;;6.45;;
68987;SDS011;56038;46.080;11.116;2023-08-20T01:33:34;8.53;;;7.00;;
68987;SDS011;56038;46.080;11.116;2023-08-20T01:38:37;6.63;;;5.88;;
68987;SDS011;56038;46.080;11.116;2023-08-20T01:43:40;7.13;;;6.43;;
68987;SDS011;56038;46.080;11.116;2023-08-20T01:48:42;6.50;;;5.68;;
68987;SDS011;56038;46.080;11.116;2023-08-20T01:53:44;7.00;;;6.22;;
68987;SDS011;56038;46.080;11.116;2023-08-20T01:58:47;6.70;;;5.95;;
68987;SDS011;56038;46.080;11.116;2023-08-20T02:03:48;8.05;;;6.70;;
68987;SDS011;56038;46.080;11.116;2023-08-20T02:08:50;8.25;;;5.68;;
68987;SDS011;56038;46.080;11.116;2023-08-20T02:13:53;8.30;;;6.25;;
68987;SDS011;56038;46.080;11.116;2023-08-20T02:18:55;7.50;;;6.78;;
68987;SDS011;56038;46.080;11.116;2023-08-20T02:23:57;6.88;;;5.55;;
68987;SDS011;56038;46.080;11.116;2023-08-20T02:29:00;6.65;;;5.30;;
68987;SDS011;56038;46.080;11.116;2023-08-20T02:34:02;7.73;;;6.30;;
68987;SDS011;56038;46.080;11.116;2023-08-20T02:39:04;6.72;;;5.28;;
68987;SDS011;56038;46.080;11.116;2023-08-20T02:44:09;7.10;;;5.78;;
68987;SDS011;56038;46.080;11.116;2023-08-20T02:49:11;7.18;;;5.45;;
68987;SDS011;56038;46.080;11.116;2023-08-20T02:54:14;9.73;;;5.13;;
68987;SDS011;56038;46.080;11.116;2023-08-20T02:59:17;7.25;;;5.78;;
68987;SDS011;56038;46.080;11.116;2023-08-20T03:04:19;6.68;;;5.82;;
68987;SDS011;56038;46.080;11.116;2023-08-20T03:09:21;6.38;;;5.47;;
68987;SDS011;56038;46.080;11.116;2023-08-20T03:14:24;5.63;;;5.03;;
68987;SDS011;56038;46.080;11.116;2023-08-20T03:19:26;5.32;;;4.60;;
68987;SDS011;56038;46.080;11.116;2023-08-20T03:24:30;7.65;;;4.95;;
68987;SDS011;56038;46.080;11.116;2023-08-20T03:29:34;8.02;;;5.60;;
68987;SDS011;56038;46.080;11.116;2023-08-20T03:34:35;8.00;;;5.00;;
68987;SDS011;56038;46.080;11.116;2023-08-20T03:39:37;6.50;;;5.80;;
68987;SDS011;56038;46.080;11.116;2023-08-20T03:44:40;6.93;;;5.95;;
68987;SDS011;56038;46.080;11.116;2023-08-20T03:49:42;8.50;;;6.00;;
68987;SDS011;56038;46.080;11.116;2023-08-20T03:54:44;4.70;;;4.30;;
68987;SDS011;56038;46.080;11.116;2023-08-20T03:59:47;6.50;;;5.13;;
68987;SDS011;56038;46.080;11.116;2023-08-20T04:04:49;6.00;;;5.40;;
68987;SDS011;56038;46.080;11.116;2023-08-20T04:09:50;6.20;;;5.60;;
68987;SDS011;56038;46.080;11.116;2023-08-20T04:14:53;6.68;;;5.70;;
68987;SDS011;56038;46.080;11.116;2023-08-20T04:19:55;7.53;;;5.68;;
68987;SDS011;56038;46.080;11.116;2023-08-20T04:24:57;7.07;;;5.88;;
68987;SDS011;56038;46.080;11.116;2023-08-20T04:30:00;6.57;;;5.50;;
68987;SDS011;56038;46.080;11.116;2023-08-20T04:35:02;6.30;;;5.70;;
68987;SDS011;56038;46.080;11.116;2023-08-20T04:40:04;5.72;;;5.10;;
68987;SDS011;56038;46.080;11.116;2023-08-20T04:45:09;8.10;;;6.03;;
68987;SDS011;56038;46.080;11.116;2023-08-20T04:50:12;5.83;;;5.30;;
68987;SDS011;56038;46.080;11.116;2023-08-20T04:55:14;6.75;;;6.03;;
68987;SDS011;56038;46.080;11.116;2023-08-20T05:00:18;6.13;;;5.30;;
68987;SDS011;56038;46.080;11.116;2023-08-20T05:05:19;7.82;;;6.13;;
68987;SDS011;56038;46.080;11.116;2023-08-20T05:10:21;5.32;;;4.82;;
68987;SDS011;56038;46.080;11.116;2023-08-20T05:15:25;6.13;;;5.22;;
68987;SDS011;56038;46.080;11.116;2023-08-20T05:20:26;5.78;;;5.10;;
68987;SDS011;56038;46.080;11.116;2023-08-20T05:25:28;5.93;;;5.32;;
68987;SDS011;56038;46.080;11.116;2023-08-20T05:30:32;6.05;;;5.32;;
68987;SDS011;56038;46.080;11.116;2023-08-20T05:35:33;5.70;;;5.13;;
68987;SDS011;56038;46.080;11.116;2023-08-20T05:40:36;6.07;;;4.88;;
68987;SDS011;56038;46.080;11.116;2023-08-20T05:45:39;8.30;;;5.43;;
68987;SDS011;56038;46.080;11.116;2023-08-20T05:50:41;5.28;;;4.78;;
68987;SDS011;56038;46.080;11.116;2023-08-20T05:55:42;5.47;;;4.75;;
68987;SDS011;56038;46.080;11.116;2023-08-20T06:00:45;7.22;;;5.30;;
68987;SDS011;56038;46.080;11.116;2023-08-20T06:05:47;7.20;;;5.13;;
68987;SDS011;56038;46.080;11.116;2023-08-20T06:10:49;6.90;;;5.63;;
68987;SDS011;56038;46.080;11.116;2023-08-20T06:15:52;7.28;;;5.68;;
68987;SDS011;56038;46.080;11.116;2023-08-20T06:20:54;5.82;;;5.18;;
68987;SDS011;56038;46.080;11.116;2023-08-20T06:25:56;9.90;;;6.20;;
68987;SDS011;56038;46.080;11.116;2023-08-20T06:30:59;6.10;;;4.85;;
68987;SDS011;56038;46.080;11.116;2023-08-20T06:36:01;5.70;;;4.97;;
68987;SDS011;56038;46.080;11.116;2023-08-20T06:41:03;5.78;;;4.50;;
68987;SDS011;56038;46.080;11.116;2023-08-20T06:46:06;5.47;;;4.97;;
68987;SDS011;56038;46.080;11.116;2023-08-20T06:51:10;6.03;;;5.43;;
68987;SDS011;56038;46.080;11.116;2023-08-20T06:56:12;9.80;;;7.22;;
68987;SDS011;56038;46.080;11.116;2023-08-20T07:01:16;6.95;;;6.15;;
68987;SDS011;56038;46.080;11.116;2023-08-20T07:06:18;5.97;;;5.43;;
68987;SDS011;56038;46.080;11.116;2023-08-20T07:11:19;7.65;;;5.43;;
68987;SDS011;56038;46.080;11.116;2023-08-20T07:16:23;7.88;;;5.30;;
68987;SDS011;56038;46.080;11.116;2023-08-20T07:21:24;7.72;;;4.80;;
68987;SDS011;56038;46.080;11.116;2023-08-20T07:26:26;5.35;;;4.60;;
68987;SDS011;56038;46.080;11.116;2023-08-20T07:31:30;6.03;;;5.32;;
68987;SDS011;56038;46.080;11.116;2023-08-20T07:36:32;6.22;;;4.93;;
68987;SDS011;56038;46.080;11.116;2023-08-20T07:41:34;7.80;;;4.78;;
68987;SDS011;56038;46.080;11.116;2023-08-20T07:46:37;5.40;;;4.55;;
68987;SDS011;56038;46.080;11.116;2023-08-20T07:51:39;6.15;;;5.53;;
68987;SDS011;56038;46.080;11.116;2023-08-20T07:56:41;6.60;;;5.28;;
68987;SDS011;56038;46.080;11.116;2023-08-20T08:01:44;5.05;;;4.13;;
68987;SDS011;56038;46.080;11.116;2023-08-20T08:06:45;7.45;;;5.35;;
68987;SDS011;56038;46.080;11.116;2023-08-20T08:11:47;5.80;;;5.18;;
68987;SDS011;56038;46.080;11.116;2023-08-20T08:16:51;5.63;;;4.72;;
68987;SDS011;56038;46.080;11.116;2023-08-20T08:21:54;9.30;;;6.67;;
68987;SDS011;56038;46.080;11.116;2023-08-20T08:26:55;7.13;;;5.45;;
68987;SDS011;56038;46.080;11.116;2023-08-20T08:31:58;5.22;;;4.80;;
68987;SDS011;56038;46.080;11.116;2023-08-20T08:37:00;5.80;;;4.88;;
68987;SDS011;56038;46.080;11.116;2023-08-20T08:42:03;7.63;;;5.20;;
68987;SDS011;56038;46.080;11.116;2023-08-20T08:47:08;6.80;;;4.90;;
68987;SDS011;56038;46.080;11.116;2023-08-20T08:52:11;6.13;;;5.53;;
68987;SDS011;56038;46.080;11.116;2023-08-20T08:57:14;6.05;;;4.15;;
68987;SDS011;56038;46.080;11.116;2023-08-20T09:02:17;4.80;;;4.40;;
68987;SDS011;56038;46.080;11.116;2023-08-20T09:07:19;6.88;;;4.60;;
68987;SDS011;56038;46.080;11.116;2023-08-20T09:12:21;5.68;;;4.40;;
68987;SDS011;56038;46.080;11.116;2023-08-20T09:17:26;6.53;;;4.55;;
68987;SDS011;56038;46.080;11.116;2023-08-20T09:22:28;4.97;;;4.55;;
68987;SDS011;56038;46.080;11.116;2023-08-20T09:27:30;5.15;;;4.57;;
68987;SDS011;56038;46.080;11.116;2023-08-20T09:32:41;4.90;;;3.85;;
68987;SDS011;56038;46.080;11.116;2023-08-20T09:37:43;6.97;;;4.57;;
68987;SDS011;56038;46.080;11.116;2023-08-20T09:42:45;7.30;;;4.88;;
68987;SDS011;56038;46.080;11.116;2023-08-20T09:47:49;5.23;;;4.70;;
68987;SDS011;56038;46.080;11.116;2023-08-20T09:52:58;5.13;;;4.63;;
68987;SDS011;56038;46.080;11.116;2023-08-20T09:58:05;6.65;;;4.35;;
68987;SDS011;56038;46.080;11.116;2023-08-20T10:03:09;6.00;;;4.63;;
68987;SDS011;56038;46.080;11.116;2023-08-20T10:08:11;5.65;;;4.53;;
68987;SDS011;56038;46.080;11.116;2023-08-20T10:13:13;5.40;;;4.90;;
68987;SDS011;56038;46.080;11.116;2023-08-20T10:18:19;4.93;;;4.50;;
68987;SDS011;56038;46.080;11.116;2023-08-20T10:23:22;4.10;;;3.80;;
68987;SDS011;56038;46.080;11.116;2023-08-20T10:28:24;10.48;;;7.50;;
68987;SDS011;56038;46.080;11.116;2023-08-20T10:33:28;7.70;;;5.70;;
68987;SDS011;56038;46.080;11.116;2023-08-20T10:43:37;5.65;;;5.15;;
68987;SDS011;56038;46.080;11.116;2023-08-20T10:48:41;5.32;;;4.82;;
68987;SDS011;56038;46.080;11.116;2023-08-20T10:53:48;7.47;;;4.90;;
68987;SDS011;56038;46.080;11.116;2023-08-20T10:59:05;6.05;;;5.00;;
68987;SDS011;56038;46.080;11.116;2023-08-20T11:04:09;4.80;;;4.35;;
68987;SDS011;56038;46.080;11.116;2023-08-20T11:09:12;4.28;;;3.97;;
68987;SDS011;56038;46.080;11.116;2023-08-20T11:14:15;5.00;;;4.40;;
68987;SDS011;56038;46.080;11.116;2023-08-20T11:19:20;6.22;;;4.45;;
68987;SDS011;56038;46.080;11.116;2023-08-20T11:24:23;5.10;;;4.60;;
68987;SDS011;56038;46.080;11.116;2023-08-20T11:29:25;5.70;;;5.07;;
68987;SDS011;56038;46.080;11.116;2023-08-20T11:34:28;4.85;;;4.45;;
68987;SDS011;56038;46.080;11.116;2023-08-20T11:39:32;5.70;;;4.85;;
68987;SDS011;56038;46.080;11.116;2023-08-20T11:44:41;5.75;;;4.72;;
68987;SDS011;56038;46.080;11.116;2023-08-20T11:49:45;5.63;;;4.75;;
68987;SDS011;56038;46.080;11.116;2023-08-20T11:54:47;6.75;;;4.30;;
68987;SDS011;56038;46.080;11.116;2023-08-20T11:59:49;6.20;;;4.20;;
68987;SDS011;56038;46.080;11.116;2023-08-20T12:04:54;4.30;;;3.90;;
68987;SDS011;56038;46.080;11.116;2023-08-20T12:09:57;4.20;;;3.80;;
68987;SDS011;56038;46.080;11.116;2023-08-20T12:14:59;5.13;;;3.93;;
68987;SDS011;56038;46.080;11.116;2023-08-20T12:20:02;3.93;;;3.57;;
68987;SDS011;56038;46.080;11.116;2023-08-20T12:25:10;5.65;;;3.72;;
68987;SDS011;56038;46.080;11.116;2023-08-20T12:30:12;4.53;;;3.77;;
68987;SDS011;56038;46.080;11.116;2023-08-20T12:35:15;8.73;;;4.05;;
68987;SDS011;56038;46.080;11.116;2023-08-20T12:40:17;4.65;;;4.13;;
68987;SDS011;56038;46.080;11.116;2023-08-20T12:45:19;6.90;;;4.17;;
68987;SDS011;56038;46.080;11.116;2023-08-20T12:50:22;4.43;;;4.13;;
68987;SDS011;56038;46.080;11.116;2023-08-20T12:55:25;4.43;;;3.92;;
68987;SDS011;56038;46.080;11.116;2023-08-20T13:00:27;5.33;;;4.80;;
68987;SDS011;56038;46.080;11.116;2023-08-20T13:05:31;6.13;;;5.00;;
68987;SDS011;56038;46.080;11.116;2023-08-20T13:10:33;5.13;;;4.72;;
68987;SDS011;56038;46.080;11.116;2023-08-20T13:15:36;5.07;;;4.65;;
68987;SDS011;56038;46.080;11.116;2023-08-20T13:20:45;4.75;;;4.43;;
68987;SDS011;56038;46.080;11.116;2023-08-20T13:25:47;5.18;;;4.35;;
68987;SDS011;56038;46.080;11.116;2023-08-20T13:30:49;5.78;;;5.20;;
68987;SDS011;56038;46.080;11.116;2023-08-20T13:40:54;5.32;;;4.90;;
68987;SDS011;56038;46.080;11.116;2023-08-20T13:45:57;6.45;;;5.85;;
68987;SDS011;56038;46.080;11.116;2023-08-20T13:51:00;6.53;;;5.93;;
68987;SDS011;56038;46.080;11.116;2023-08-20T13:56:02;6.47;;;5.88;;
68987;SDS011;56038;46.080;11.116;2023-08-20T14:06:07;6.10;;;5.57;;
68987;SDS011;56038;46.080;11.116;2023-08-20T14:11:09;6.38;;;5.82;;
68987;SDS011;56038;46.080;11.116;2023-08-20T14:16:11;5.78;;;5.30;;
68987;SDS011;56038;46.080;11.116;2023-08-20T14:26:16;6.55;;;5.95;;
68987;SDS011;56038;46.080;11.116;2023-08-20T14:31:17;6.65;;;6.05;;
68987;SDS011;56038;46.080;11.116;2023-08-20T14:36:21;6.00;;;5.60;;
68987;SDS011;56038;46.080;11.116;2023-08-20T14:41:23;6.35;;;5.75;;
68987;SDS011;56038;46.080;11.116;2023-08-20T14:46:24;6.07;;;5.57;;
68987;SDS011;56038;46.080;11.116;2023-08-20T14:51:28;6.50;;;5.90;;
68987;SDS011;56038;46.080;11.116;2023-08-20T14:56:30;5.93;;;5.45;;
68987;SDS011;56038;46.080;11.116;2023-08-20T15:01:32;6.22;;;5.63;;
68987;SDS011;56038;46.080;11.116;2023-08-20T15:06:35;6.82;;;6.32;;
68987;SDS011;56038;46.080;11.116;2023-08-20T15:11:37;6.28;;;5.78;;
68987;SDS011;56038;46.080;11.116;2023-08-20T15:16:39;6.80;;;6.20;;
68987;SDS011;56038;46.080;11.116;2023-08-20T15:21:42;6.60;;;6.00;;
68987;SDS011;56038;46.080;11.116;2023-08-20T15:26:44;7.13;;;6.47;;
68987;SDS011;56038;46.080;11.116;2023-08-20T15:31:45;7.13;;;6.53;;
68987;SDS011;56038;46.080;11.116;2023-08-20T15:36:50;7.85;;;7.10;;
68987;SDS011;56038;46.080;11.116;2023-08-20T15:41:52;7.10;;;6.50;;
68987;SDS011;56038;46.080;11.116;2023-08-20T15:46:54;7.73;;;7.03;;
68987;SDS011;56038;46.080;11.116;2023-08-20T15:51:57;7.47;;;6.70;;
68987;SDS011;56038;46.080;11.116;2023-08-20T15:56:58;7.57;;;6.88;;
68987;SDS011;56038;46.080;11.116;2023-08-20T16:02:00;8.00;;;7.20;;
68987;SDS011;56038;46.080;11.116;2023-08-20T16:07:03;6.55;;;5.93;;
68987;SDS011;56038;46.080;11.116;2023-08-20T16:12:07;7.97;;;7.18;;
68987;SDS011;56038;46.080;11.116;2023-08-20T16:17:09;7.63;;;6.93;;
68987;SDS011;56038;46.080;11.116;2023-08-20T16:22:13;8.05;;;7.10;;
68987;SDS011;56038;46.080;11.116;2023-08-20T16:27:14;7.22;;;6.63;;
68987;SDS011;56038;46.080;11.116;2023-08-20T16:32:16;7.65;;;6.55;;
68987;SDS011;56038;46.080;11.116;2023-08-20T16:37:19;7.05;;;6.45;;
68987;SDS011;56038;46.080;11.116;2023-08-20T16:42:21;7.90;;;7.20;;
68987;SDS011;56038;46.080;11.116;2023-08-20T16:47:23;8.55;;;7.10;;
68987;SDS011;56038;46.080;11.116;2023-08-20T16:52:26;7.50;;;6.68;;
68987;SDS011;56038;46.080;11.116;2023-08-20T16:57:28;7.20;;;6.57;;
68987;SDS011;56038;46.080;11.116;2023-08-20T17:02:30;8.38;;;6.68;;
68987;SDS011;56038;46.080;11.116;2023-08-20T17:07:33;8.05;;;7.28;;
68987;SDS011;56038;46.080;11.116;2023-08-20T17:12:36;8.35;;;7.22;;
68987;SDS011;56038;46.080;11.116;2023-08-20T17:17:37;7.40;;;6.70;;
68987;SDS011;56038;46.080;11.116;2023-08-20T17:22:41;9.40;;;6.88;;
68987;SDS011;56038;46.080;11.116;2023-08-20T17:27:43;7.80;;;6.85;;
68987;SDS011;56038;46.080;11.116;2023-08-20T17:32:44;8.05;;;6.95;;
68987;SDS011;56038;46.080;11.116;2023-08-20T17:37:47;9.00;;;7.35;;
68987;SDS011;56038;46.080;11.116;2023-08-20T17:42:49;7.88;;;7.05;;
68987;SDS011;56038;46.080;11.116;2023-08-20T17:47:51;7.43;;;6.70;;
68987;SDS011;56038;46.080;11.116;2023-08-20T17:52:54;8.15;;;7.40;;
68987;SDS011;56038;46.080;11.116;2023-08-20T17:57:56;7.05;;;6.35;;
68987;SDS011;56038;46.080;11.116;2023-08-20T18:02:57;8.05;;;7.25;;
68987;SDS011;56038;46.080;11.116;2023-08-20T18:08:01;8.05;;;6.68;;
68987;SDS011;56038;46.080;11.116;2023-08-20T18:13:03;6.88;;;6.28;;
68987;SDS011;56038;46.080;11.116;2023-08-20T18:18:07;8.32;;;7.53;;
68987;SDS011;56038;46.080;11.116;2023-08-20T18:23:10;8.25;;;7.45;;
68987;SDS011;56038;46.080;11.116;2023-08-20T18:28:11;7.05;;;6.45;;
68987;SDS011;56038;46.080;11.116;2023-08-20T18:33:13;8.32;;;6.25;;
68987;SDS011;56038;46.080;11.116;2023-08-20T18:38:17;9.55;;;8.32;;
68987;SDS011;56038;46.080;11.116;2023-08-20T18:43:38;8.55;;;7.70;;
68987;SDS011;56038;46.080;11.116;2023-08-20T18:48:40;7.95;;;7.18;;
68987;SDS011;56038;46.080;11.116;2023-08-20T18:53:43;7.80;;;7.00;;
68987;SDS011;56038;46.080;11.116;2023-08-20T18:58:44;8.10;;;7.40;;
68987;SDS011;56038;46.080;11.116;2023-08-20T19:03:46;8.73;;;7.93;;
68987;SDS011;56038;46.080;11.116;2023-08-20T19:08:49;7.57;;;6.60;;
68987;SDS011;56038;46.080;11.116;2023-08-20T19:13:51;11.25;;;8.63;;
68987;SDS011;56038;46.080;11.116;2023-08-20T19:18:53;7.90;;;7.25;;
68987;SDS011;56038;46.080;11.116;2023-08-20T19:23:56;8.60;;;7.70;;
68987;SDS011;56038;46.080;11.116;2023-08-20T19:28:59;8.15;;;7.45;;
68987;SDS011;56038;46.080;11.116;2023-08-20T19:34:01;9.27;;;8.27;;
68987;SDS011;56038;46.080;11.116;2023-08-20T19:39:05;8.50;;;7.60;;
68987;SDS011;56038;46.080;11.116;2023-08-20T19:44:07;8.63;;;7.80;;
68987;SDS011;56038;46.080;11.116;2023-08-20T19:49:09;8.52;;;6.88;;
68987;SDS011;56038;46.080;11.116;2023-08-20T19:54:13;7.47;;;6.77;;
68987;SDS011;56038;46.080;11.116;2023-08-20T19:59:15;8.43;;;7.40;;
68987;SDS011;56038;46.080;11.116;2023-08-20T20:04:17;7.72;;;7.03;;
68987;SDS011;56038;46.080;11.116;2023-08-20T20:09:20;7.50;;;6.80;;
68987;SDS011;56038;46.080;11.116;2023-08-20T20:19:24;7.35;;;6.60;;
68987;SDS011;56038;46.080;11.116;2023-08-20T20:24:27;7.93;;;7.15;;
68987;SDS011;56038;46.080;11.116;2023-08-20T20:29:29;9.32;;;8.02;;
68987;SDS011;56038;46.080;11.116;2023-08-20T20:34:31;8.52;;;7.72;;
68987;SDS011;56038;46.080;11.116;2023-08-20T20:39:34;8.65;;;7.80;;
68987;SDS011;56038;46.080;11.116;2023-08-20T20:44:36;8.13;;;7.43;;
68987;SDS011;56038;46.080;11.116;2023-08-20T20:49:38;8.82;;;7.32;;
68987;SDS011;56038;46.080;11.116;2023-08-20T20:54:43;8.73;;;7.95;;
68987;SDS011;56038;46.080;11.116;2023-08-20T20:59:45;8.40;;;7.57;;
68987;SDS011;56038;46.080;11.116;2023-08-20T21:04:46;8.00;;;7.30;;
68987;SDS011;56038;46.080;11.116;2023-08-20T21:09:50;9.70;;;8.70;;
68987;SDS011;56038;46.080;11.116;2023-08-20T21:14:51;10.15;;;7.88;;
68987;SDS011;56038;46.080;11.116;2023-08-20T21:19:53;8.85;;;7.95;;
68987;SDS011;56038;46.080;11.116;2023-08-20T21:24:56;7.90;;;7.10;;
68987;SDS011;56038;46.080;11.116;2023-08-20T21:29:58;7.13;;;6.00;;
68987;SDS011;56038;46.080;11.116;2023-08-20T21:35:00;8.70;;;7.75;;
68987;SDS011;56038;46.080;11.116;2023-08-20T21:40:03;7.65;;;6.88;;
68987;SDS011;56038;46.080;11.116;2023-08-20T21:50:07;7.07;;;6.38;;
68987;SDS011;56038;46.080;11.116;2023-08-20T21:55:11;9.00;;;8.10;;
68987;SDS011;56038;46.080;11.116;2023-08-20T22:00:15;8.00;;;7.20;;
68987;SDS011;56038;46.080;11.116;2023-08-20T22:05:18;9.70;;;7.57;;
68987;SDS011;56038;46.080;11.116;2023-08-20T22:10:22;9.35;;;8.43;;
68987;SDS011;56038;46.080;11.116;2023-08-20T22:15:24;9.55;;;8.07;;
68987;SDS011;56038;46.080;11.116;2023-08-20T22:20:26;8.30;;;7.50;;
68987;SDS011;56038;46.080;11.116;2023-08-20T22:25:29;8.50;;;7.80;;
68987;SDS011;56038;46.080;11.116;2023-08-20T22:30:31;8.67;;;7.80;;
68987;SDS011;56038;46.080;11.116;2023-08-20T22:35:33;15.93;;;8.35;;
68987;SDS011;56038;46.080;11.116;2023-08-20T22:40:36;8.95;;;8.05;;
68987;SDS011;56038;46.080;11.116;2023-08-20T22:45:40;9.20;;;8.00;;
68987;SDS011;56038;46.080;11.116;2023-08-20T22:50:44;9.68;;;8.75;;
68987;SDS011;56038;46.080;11.116;2023-08-20T22:55:49;8.38;;;7.57;;
68987;SDS011;56038;46.080;11.116;2023-08-20T23:00:52;9.10;;;8.20;;
68987;SDS011;56038;46.080;11.116;2023-08-20T23:05:53;9.50;;;8.48;;
68987;SDS011;56038;46.080;11.116;2023-08-20T23:10:57;8.68;;;7.82;;
68987;SDS011;56038;46.080;11.116;2023-08-20T23:15:58;8.60;;;7.70;;
68987;SDS011;56038;46.080;11.116;2023-08-20T23:21:00;8.52;;;7.72;;
68987;SDS011;56038;46.080;11.116;2023-08-20T23:26:04;8.27;;;7.57;;
68987;SDS011;56038;46.080;11.116;2023-08-20T23:31:06;9.00;;;8.05;;
68987;SDS011;56038;46.080;11.116;2023-08-20T23:36:10;8.43;;;7.57;;
68987;SDS011;56038;46.080;11.116;2023-08-20T23:41:13;8.27;;;7.50;;
68987;SDS011;56038;46.080;11.116;2023-08-20T23:46:15;7.75;;;7.05;;
68987;SDS011;56038;46.080;11.116;2023-08-20T23:51:17;9.48;;;8.52;;
68987;SDS011;56038;46.080;11.116;2023-08-20T23:56:20;8.65;;;7.82;;
